sensor_id;sensor_type;location;lat;lon;timestamp;temperature;humidity
61253;DHT22;47127;47.516;8.596;2024-01-06T00:00:13;6.40;99.90
61253;DHT22;47127;47.516;8.596;2024-01-06T00:02:41;6.30;99.90
61253;DHT22;47127;47.516;8.596;2024-01-06T00:05:07;6.40;99.90
61253;DHT22;47127;47.516;8.596;2024-01-06T00:07:32;6.40;99.90
61253;DHT22;47127;47.516;8.596;2024-01-06T00:09:58;6.30;99.90
61253;DHT22;47127;47.516;8.596;2024-01-06T00:12:23;6.30;99.90
61253;DHT22;47127;47.516;8.596;2024-01-06T00:14:49;6.40;99.90
61253;DHT22;47127;47.516;8.596;2024-01-06T00:17:16;6.50;99.90
61253;DHT22;47127;47.516;8.596;2024-01-06T00:19:42;6.50;99.90
61253;DHT22;47127;47.516;8.596;2024-01-06T00:22:08;6.60;99.90
61253;DHT22;47127;47.516;8.596;2024-01-06T00:24:33;6.60;99.90
61253;DHT22;47127;47.516;8.596;2024-01-06T00:26:59;6.50;99.90
61253;DHT22;47127;47.516;8.596;2024-01-06T00:29:25;6.50;99.90
61253;DHT22;47127;47.516;8.596;2024-01-06T00:31:50;6.50;99.90
61253;DHT22;47127;47.516;8.596;2024-01-06T00:34:16;6.50;99.90
61253;DHT22;47127;47.516;8.596;2024-01-06T00:36:42;6.40;99.90
61253;DHT22;47127;47.516;8.596;2024-01-06T00:39:07;6.50;99.90
61253;DHT22;47127;47.516;8.596;2024-01-06T00:41:33;6.40;99.90
61253;DHT22;47127;47.516;8.596;2024-01-06T00:43:59;6.40;99.90
61253;DHT22;47127;47.516;8.596;2024-01-06T00:46:24;6.40;99.90
61253;DHT22;47127;47.516;8.596;2024-01-06T00:48:50;6.40;99.90
61253;DHT22;47127;47.516;8.596;2024-01-06T00:51:15;6.40;99.90
61253;DHT22;47127;47.516;8.596;2024-01-06T00:53:41;6.30;99.90
61253;DHT22;47127;47.516;8.596;2024-01-06T00:56:06;6.50;99.90
61253;DHT22;47127;47.516;8.596;2024-01-06T00:58:32;6.40;99.90
61253;DHT22;47127;47.516;8.596;2024-01-06T01:00:57;6.40;99.90
61253;DHT22;47127;47.516;8.596;2024-01-06T01:03:23;6.40;99.90
61253;DHT22;47127;47.516;8.596;2024-01-06T01:05:48;6.40;99.90
61253;DHT22;47127;47.516;8.596;2024-01-06T01:08:14;6.50;99.90
61253;DHT22;47127;47.516;8.596;2024-01-06T01:10:40;6.50;99.90
61253;DHT22;47127;47.516;8.596;2024-01-06T01:13:05;6.40;99.90
61253;DHT22;47127;47.516;8.596;2024-01-06T01:15:31;6.50;99.90
61253;DHT22;47127;47.516;8.596;2024-01-06T01:17:57;6.50;99.90
61253;DHT22;47127;47.516;8.596;2024-01-06T01:20:22;6.50;99.90
61253;DHT22;47127;47.516;8.596;2024-01-06T01:22:48;6.50;99.90
61253;DHT22;47127;47.516;8.596;2024-01-06T01:25:13;6.40;99.90
61253;DHT22;47127;47.516;8.596;2024-01-06T01:27:39;6.50;99.90
61253;DHT22;47127;47.516;8.596;2024-01-06T01:30:05;6.50;99.90
61253;DHT22;47127;47.516;8.596;2024-01-06T01:32:31;6.50;99.90
61253;DHT22;47127;47.516;8.596;2024-01-06T01:34:56;6.40;99.90
61253;DHT22;47127;47.516;8.596;2024-01-06T01:37:22;6.40;99.90
61253;DHT22;47127;47.516;8.596;2024-01-06T01:39:47;6.40;99.90
61253;DHT22;47127;47.516;8.596;2024-01-06T01:42:13;6.30;99.90
61253;DHT22;47127;47.516;8.596;2024-01-06T01:44:39;6.30;99.90
61253;DHT22;47127;47.516;8.596;2024-01-06T01:47:05;6.30;99.90
61253;DHT22;47127;47.516;8.596;2024-01-06T01:49:30;6.30;99.90
61253;DHT22;47127;47.516;8.596;2024-01-06T01:51:58;6.30;99.90
61253;DHT22;47127;47.516;8.596;2024-01-06T01:54:23;6.40;99.90
61253;DHT22;47127;47.516;8.596;2024-01-06T01:56:49;6.40;99.90
61253;DHT22;47127;47.516;8.596;2024-01-06T01:59:18;6.50;99.90
61253;DHT22;47127;47.516;8.596;2024-01-06T02:01:44;6.50;99.90
61253;DHT22;47127;47.516;8.596;2024-01-06T02:04:10;6.50;99.90
61253;DHT22;47127;47.516;8.596;2024-01-06T02:06:35;6.40;99.90
61253;DHT22;47127;47.516;8.596;2024-01-06T02:09:01;6.40;99.90
61253;DHT22;47127;47.516;8.596;2024-01-06T02:11:27;6.40;99.90
61253;DHT22;47127;47.516;8.596;2024-01-06T02:13:52;6.40;99.90
61253;DHT22;47127;47.516;8.596;2024-01-06T02:16:18;6.50;99.90
61253;DHT22;47127;47.516;8.596;2024-01-06T02:18:44;6.40;99.90
61253;DHT22;47127;47.516;8.596;2024-01-06T02:21:09;6.50;99.90
61253;DHT22;47127;47.516;8.596;2024-01-06T02:23:36;6.40;99.90
61253;DHT22;47127;47.516;8.596;2024-01-06T02:26:02;6.40;99.90
61253;DHT22;47127;47.516;8.596;2024-01-06T02:28:28;6.50;99.90
61253;DHT22;47127;47.516;8.596;2024-01-06T02:30:53;6.50;99.90
61253;DHT22;47127;47.516;8.596;2024-01-06T02:33:19;6.50;99.90
61253;DHT22;47127;47.516;8.596;2024-01-06T02:35:48;6.50;99.90
61253;DHT22;47127;47.516;8.596;2024-01-06T02:38:14;6.50;99.90
61253;DHT22;47127;47.516;8.596;2024-01-06T02:40:39;6.50;99.90
61253;DHT22;47127;47.516;8.596;2024-01-06T02:43:05;6.40;99.90
61253;DHT22;47127;47.516;8.596;2024-01-06T02:45:30;6.40;99.90
61253;DHT22;47127;47.516;8.596;2024-01-06T02:47:56;6.40;99.90
61253;DHT22;47127;47.516;8.596;2024-01-06T02:50:22;6.30;99.90
61253;DHT22;47127;47.516;8.596;2024-01-06T02:52:47;6.30;99.90
61253;DHT22;47127;47.516;8.596;2024-01-06T02:55:13;6.30;99.90
61253;DHT22;47127;47.516;8.596;2024-01-06T02:57:39;6.30;99.90
61253;DHT22;47127;47.516;8.596;2024-01-06T03:00:07;6.30;99.90
61253;DHT22;47127;47.516;8.596;2024-01-06T03:02:32;6.30;99.90
61253;DHT22;47127;47.516;8.596;2024-01-06T03:04:58;6.30;99.90
61253;DHT22;47127;47.516;8.596;2024-01-06T03:07:24;6.20;99.90
61253;DHT22;47127;47.516;8.596;2024-01-06T03:09:49;6.20;99.90
61253;DHT22;47127;47.516;8.596;2024-01-06T03:12:15;6.20;99.90
61253;DHT22;47127;47.516;8.596;2024-01-06T03:14:40;6.00;99.90
61253;DHT22;47127;47.516;8.596;2024-01-06T03:17:06;5.90;99.90
61253;DHT22;47127;47.516;8.596;2024-01-06T03:19:32;5.80;99.90
61253;DHT22;47127;47.516;8.596;2024-01-06T03:21:57;5.90;99.90
61253;DHT22;47127;47.516;8.596;2024-01-06T03:24:24;5.90;99.90
61253;DHT22;47127;47.516;8.596;2024-01-06T03:26:50;6.00;99.90
61253;DHT22;47127;47.516;8.596;2024-01-06T03:29:16;6.00;99.90
61253;DHT22;47127;47.516;8.596;2024-01-06T03:31:42;6.00;99.90
61253;DHT22;47127;47.516;8.596;2024-01-06T03:34:08;5.90;99.90
61253;DHT22;47127;47.516;8.596;2024-01-06T03:36:34;5.90;99.90
61253;DHT22;47127;47.516;8.596;2024-01-06T03:39:00;5.90;99.90
61253;DHT22;47127;47.516;8.596;2024-01-06T03:41:25;5.90;99.90
61253;DHT22;47127;47.516;8.596;2024-01-06T03:43:51;5.80;99.90
61253;DHT22;47127;47.516;8.596;2024-01-06T03:46:16;5.80;99.90
61253;DHT22;47127;47.516;8.596;2024-01-06T03:48:42;5.80;99.90
61253;DHT22;47127;47.516;8.596;2024-01-06T03:51:10;5.80;99.90
61253;DHT22;47127;47.516;8.596;2024-01-06T03:53:35;5.80;99.90
61253;DHT22;47127;47.516;8.596;2024-01-06T03:56:02;5.80;99.90
61253;DHT22;47127;47.516;8.596;2024-01-06T03:58:28;5.80;99.90
61253;DHT22;47127;47.516;8.596;2024-01-06T04:00:54;5.80;99.90
61253;DHT22;47127;47.516;8.596;2024-01-06T04:03:20;5.80;99.90
61253;DHT22;47127;47.516;8.596;2024-01-06T04:05:46;5.70;99.90
61253;DHT22;47127;47.516;8.596;2024-01-06T04:08:12;5.80;99.90
61253;DHT22;47127;47.516;8.596;2024-01-06T04:10:37;5.80;99.90
61253;DHT22;47127;47.516;8.596;2024-01-06T04:13:04;5.80;99.90
61253;DHT22;47127;47.516;8.596;2024-01-06T04:15:29;5.90;99.90
61253;DHT22;47127;47.516;8.596;2024-01-06T04:17:55;5.90;99.90
61253;DHT22;47127;47.516;8.596;2024-01-06T04:20:20;5.90;99.90
61253;DHT22;47127;47.516;8.596;2024-01-06T04:22:46;5.90;99.90
61253;DHT22;47127;47.516;8.596;2024-01-06T04:25:12;5.90;99.90
61253;DHT22;47127;47.516;8.596;2024-01-06T04:27:37;5.90;99.90
61253;DHT22;47127;47.516;8.596;2024-01-06T04:30:03;6.00;99.90
61253;DHT22;47127;47.516;8.596;2024-01-06T04:32:29;5.90;99.90
61253;DHT22;47127;47.516;8.596;2024-01-06T04:34:54;5.70;99.90
61253;DHT22;47127;47.516;8.596;2024-01-06T04:37:22;5.60;99.90
61253;DHT22;47127;47.516;8.596;2024-01-06T04:39:47;5.60;99.90
61253;DHT22;47127;47.516;8.596;2024-01-06T04:42:13;5.50;99.90
61253;DHT22;47127;47.516;8.596;2024-01-06T04:44:38;5.50;99.90
61253;DHT22;47127;47.516;8.596;2024-01-06T04:47:04;5.50;99.90
61253;DHT22;47127;47.516;8.596;2024-01-06T04:49:29;5.50;99.90
61253;DHT22;47127;47.516;8.596;2024-01-06T04:51:55;5.50;99.90
61253;DHT22;47127;47.516;8.596;2024-01-06T04:54:21;5.50;99.90
61253;DHT22;47127;47.516;8.596;2024-01-06T04:56:47;5.50;99.90
61253;DHT22;47127;47.516;8.596;2024-01-06T04:59:13;5.50;99.90
61253;DHT22;47127;47.516;8.596;2024-01-06T05:01:38;5.50;99.90
61253;DHT22;47127;47.516;8.596;2024-01-06T05:04:04;5.50;99.90
61253;DHT22;47127;47.516;8.596;2024-01-06T05:06:30;5.50;99.90
61253;DHT22;47127;47.516;8.596;2024-01-06T05:08:55;5.40;99.90
61253;DHT22;47127;47.516;8.596;2024-01-06T05:11:21;5.50;99.90
61253;DHT22;47127;47.516;8.596;2024-01-06T05:13:46;5.60;99.90
61253;DHT22;47127;47.516;8.596;2024-01-06T05:16:12;5.60;99.90
61253;DHT22;47127;47.516;8.596;2024-01-06T05:18:38;5.60;99.90
61253;DHT22;47127;47.516;8.596;2024-01-06T05:21:03;5.70;99.90
61253;DHT22;47127;47.516;8.596;2024-01-06T05:23:29;5.60;99.90
61253;DHT22;47127;47.516;8.596;2024-01-06T05:25:55;5.60;99.90
61253;DHT22;47127;47.516;8.596;2024-01-06T05:28:20;5.60;99.90
61253;DHT22;47127;47.516;8.596;2024-01-06T05:30:46;5.50;99.90
61253;DHT22;47127;47.516;8.596;2024-01-06T05:33:12;5.60;99.90
61253;DHT22;47127;47.516;8.596;2024-01-06T05:35:41;5.70;99.90
61253;DHT22;47127;47.516;8.596;2024-01-06T05:38:07;5.70;99.90
61253;DHT22;47127;47.516;8.596;2024-01-06T05:40:32;5.70;99.90
61253;DHT22;47127;47.516;8.596;2024-01-06T05:42:58;5.70;99.90
61253;DHT22;47127;47.516;8.596;2024-01-06T05:45:23;5.70;99.90
61253;DHT22;47127;47.516;8.596;2024-01-06T05:47:49;5.70;99.90
61253;DHT22;47127;47.516;8.596;2024-01-06T05:50:16;5.60;99.90
61253;DHT22;47127;47.516;8.596;2024-01-06T05:52:42;5.60;99.90
61253;DHT22;47127;47.516;8.596;2024-01-06T05:55:08;5.50;99.90
61253;DHT22;47127;47.516;8.596;2024-01-06T05:57:34;5.60;99.90
61253;DHT22;47127;47.516;8.596;2024-01-06T06:00:00;5.50;99.90
61253;DHT22;47127;47.516;8.596;2024-01-06T06:02:25;5.50;99.90
61253;DHT22;47127;47.516;8.596;2024-01-06T06:04:51;5.50;99.90
61253;DHT22;47127;47.516;8.596;2024-01-06T06:07:18;5.50;99.90
61253;DHT22;47127;47.516;8.596;2024-01-06T06:09:43;5.50;99.90
61253;DHT22;47127;47.516;8.596;2024-01-06T06:12:13;5.50;99.90
61253;DHT22;47127;47.516;8.596;2024-01-06T06:14:39;5.50;99.90
61253;DHT22;47127;47.516;8.596;2024-01-06T06:17:05;5.50;99.90
61253;DHT22;47127;47.516;8.596;2024-01-06T06:19:31;5.50;99.90
61253;DHT22;47127;47.516;8.596;2024-01-06T06:21:57;5.60;99.90
61253;DHT22;47127;47.516;8.596;2024-01-06T06:24:22;5.50;99.90
61253;DHT22;47127;47.516;8.596;2024-01-06T06:26:48;5.50;99.90
61253;DHT22;47127;47.516;8.596;2024-01-06T06:29:13;5.50;99.90
61253;DHT22;47127;47.516;8.596;2024-01-06T06:31:39;5.40;99.90
61253;DHT22;47127;47.516;8.596;2024-01-06T06:34:04;5.40;99.90
61253;DHT22;47127;47.516;8.596;2024-01-06T06:36:30;5.40;99.90
61253;DHT22;47127;47.516;8.596;2024-01-06T06:38:56;5.40;99.90
61253;DHT22;47127;47.516;8.596;2024-01-06T06:41:24;5.40;99.90
61253;DHT22;47127;47.516;8.596;2024-01-06T06:43:50;5.50;99.90
61253;DHT22;47127;47.516;8.596;2024-01-06T06:46:16;5.40;99.90
61253;DHT22;47127;47.516;8.596;2024-01-06T06:48:42;5.40;99.90
61253;DHT22;47127;47.516;8.596;2024-01-06T06:51:07;5.50;99.90
61253;DHT22;47127;47.516;8.596;2024-01-06T06:53:33;5.60;99.90
61253;DHT22;47127;47.516;8.596;2024-01-06T06:55:58;5.60;99.90
61253;DHT22;47127;47.516;8.596;2024-01-06T06:58:24;5.50;99.90
61253;DHT22;47127;47.516;8.596;2024-01-06T07:00:51;5.50;99.90
61253;DHT22;47127;47.516;8.596;2024-01-06T07:03:16;5.40;99.90
61253;DHT22;47127;47.516;8.596;2024-01-06T07:05:42;5.40;99.90
61253;DHT22;47127;47.516;8.596;2024-01-06T07:08:07;5.30;99.90
61253;DHT22;47127;47.516;8.596;2024-01-06T07:10:33;5.30;99.90
61253;DHT22;47127;47.516;8.596;2024-01-06T07:12:59;5.40;99.90
61253;DHT22;47127;47.516;8.596;2024-01-06T07:15:27;5.40;99.90
61253;DHT22;47127;47.516;8.596;2024-01-06T07:17:53;5.50;99.90
61253;DHT22;47127;47.516;8.596;2024-01-06T07:20:18;5.40;99.90
61253;DHT22;47127;47.516;8.596;2024-01-06T07:22:45;5.40;99.90
61253;DHT22;47127;47.516;8.596;2024-01-06T07:25:10;5.40;99.90
61253;DHT22;47127;47.516;8.596;2024-01-06T07:27:36;5.40;99.90
61253;DHT22;47127;47.516;8.596;2024-01-06T07:30:01;5.40;99.90
61253;DHT22;47127;47.516;8.596;2024-01-06T07:32:27;5.40;99.90
61253;DHT22;47127;47.516;8.596;2024-01-06T07:34:53;5.40;99.90
61253;DHT22;47127;47.516;8.596;2024-01-06T07:37:18;5.30;99.90
61253;DHT22;47127;47.516;8.596;2024-01-06T07:39:44;5.30;99.90
61253;DHT22;47127;47.516;8.596;2024-01-06T07:42:11;5.30;99.90
61253;DHT22;47127;47.516;8.596;2024-01-06T07:44:37;5.30;99.90
61253;DHT22;47127;47.516;8.596;2024-01-06T07:47:02;5.30;99.90
61253;DHT22;47127;47.516;8.596;2024-01-06T07:49:30;5.20;99.90
61253;DHT22;47127;47.516;8.596;2024-01-06T07:51:56;5.30;99.90
61253;DHT22;47127;47.516;8.596;2024-01-06T07:54:22;5.40;99.90
61253;DHT22;47127;47.516;8.596;2024-01-06T07:56:47;5.50;99.90
61253;DHT22;47127;47.516;8.596;2024-01-06T07:59:13;5.50;99.90
61253;DHT22;47127;47.516;8.596;2024-01-06T08:01:39;5.50;99.90
61253;DHT22;47127;47.516;8.596;2024-01-06T08:04:04;5.40;99.90
61253;DHT22;47127;47.516;8.596;2024-01-06T08:06:30;5.30;99.90
61253;DHT22;47127;47.516;8.596;2024-01-06T08:08:56;5.20;99.90
61253;DHT22;47127;47.516;8.596;2024-01-06T08:11:21;5.20;99.90
61253;DHT22;47127;47.516;8.596;2024-01-06T08:13:47;5.20;99.90
61253;DHT22;47127;47.516;8.596;2024-01-06T08:16:12;5.20;99.90
61253;DHT22;47127;47.516;8.596;2024-01-06T08:18:38;5.30;99.90
61253;DHT22;47127;47.516;8.596;2024-01-06T08:21:04;5.30;99.90
61253;DHT22;47127;47.516;8.596;2024-01-06T08:23:29;5.30;99.90
61253;DHT22;47127;47.516;8.596;2024-01-06T08:25:55;5.20;99.90
61253;DHT22;47127;47.516;8.596;2024-01-06T08:28:21;5.30;99.90
61253;DHT22;47127;47.516;8.596;2024-01-06T08:30:48;5.20;99.90
61253;DHT22;47127;47.516;8.596;2024-01-06T08:33:14;5.20;99.90
61253;DHT22;47127;47.516;8.596;2024-01-06T08:35:39;5.30;99.90
61253;DHT22;47127;47.516;8.596;2024-01-06T08:38:08;5.30;99.90
61253;DHT22;47127;47.516;8.596;2024-01-06T08:40:34;5.30;99.90
61253;DHT22;47127;47.516;8.596;2024-01-06T08:43:01;5.30;99.90
61253;DHT22;47127;47.516;8.596;2024-01-06T08:45:26;5.30;99.90
61253;DHT22;47127;47.516;8.596;2024-01-06T08:47:52;5.30;99.90
61253;DHT22;47127;47.516;8.596;2024-01-06T08:50:17;5.50;99.90
61253;DHT22;47127;47.516;8.596;2024-01-06T08:52:43;5.50;99.90
61253;DHT22;47127;47.516;8.596;2024-01-06T08:55:09;5.50;99.90
61253;DHT22;47127;47.516;8.596;2024-01-06T08:57:34;5.50;99.90
61253;DHT22;47127;47.516;8.596;2024-01-06T09:00:00;5.40;99.90
61253;DHT22;47127;47.516;8.596;2024-01-06T09:02:25;5.40;99.90
61253;DHT22;47127;47.516;8.596;2024-01-06T09:04:51;5.30;99.90
61253;DHT22;47127;47.516;8.596;2024-01-06T09:07:16;5.30;99.90
61253;DHT22;47127;47.516;8.596;2024-01-06T09:09:43;5.40;99.90
61253;DHT22;47127;47.516;8.596;2024-01-06T09:12:09;5.40;99.90
61253;DHT22;47127;47.516;8.596;2024-01-06T09:14:35;5.40;99.90
61253;DHT22;47127;47.516;8.596;2024-01-06T09:17:00;5.40;99.90
61253;DHT22;47127;47.516;8.596;2024-01-06T09:19:26;5.40;99.90
61253;DHT22;47127;47.516;8.596;2024-01-06T09:21:53;5.30;99.90
61253;DHT22;47127;47.516;8.596;2024-01-06T09:24:20;5.30;99.90
61253;DHT22;47127;47.516;8.596;2024-01-06T09:26:45;5.40;99.90
61253;DHT22;47127;47.516;8.596;2024-01-06T09:29:11;5.40;99.90
61253;DHT22;47127;47.516;8.596;2024-01-06T09:31:37;5.40;99.90
61253;DHT22;47127;47.516;8.596;2024-01-06T09:34:04;5.50;99.90
61253;DHT22;47127;47.516;8.596;2024-01-06T09:36:31;5.50;99.90
61253;DHT22;47127;47.516;8.596;2024-01-06T09:38:57;5.50;99.90
61253;DHT22;47127;47.516;8.596;2024-01-06T09:41:23;5.50;99.90
61253;DHT22;47127;47.516;8.596;2024-01-06T09:43:50;5.40;99.90
61253;DHT22;47127;47.516;8.596;2024-01-06T09:48:49;5.50;99.90
61253;DHT22;47127;47.516;8.596;2024-01-06T09:51:17;5.60;99.90
61253;DHT22;47127;47.516;8.596;2024-01-06T09:56:20;5.70;99.90
61253;DHT22;47127;47.516;8.596;2024-01-06T09:58:45;5.70;99.90
61253;DHT22;47127;47.516;8.596;2024-01-06T10:01:11;5.70;99.90
61253;DHT22;47127;47.516;8.596;2024-01-06T10:03:38;5.70;99.90
61253;DHT22;47127;47.516;8.596;2024-01-06T10:06:03;5.60;99.90
61253;DHT22;47127;47.516;8.596;2024-01-06T10:08:32;5.70;99.90
61253;DHT22;47127;47.516;8.596;2024-01-06T10:11:00;5.70;99.90
61253;DHT22;47127;47.516;8.596;2024-01-06T10:13:25;5.70;99.90
61253;DHT22;47127;47.516;8.596;2024-01-06T10:15:51;5.70;99.90
61253;DHT22;47127;47.516;8.596;2024-01-06T10:18:17;5.60;99.90
61253;DHT22;47127;47.516;8.596;2024-01-06T10:20:47;5.70;99.90
61253;DHT22;47127;47.516;8.596;2024-01-06T10:23:13;5.80;99.90
61253;DHT22;47127;47.516;8.596;2024-01-06T10:25:38;5.80;99.90
61253;DHT22;47127;47.516;8.596;2024-01-06T10:28:04;5.80;99.90
61253;DHT22;47127;47.516;8.596;2024-01-06T10:30:30;5.70;99.90
61253;DHT22;47127;47.516;8.596;2024-01-06T10:32:55;5.70;99.90
61253;DHT22;47127;47.516;8.596;2024-01-06T10:35:21;5.70;99.90
61253;DHT22;47127;47.516;8.596;2024-01-06T10:37:47;5.60;99.90
61253;DHT22;47127;47.516;8.596;2024-01-06T10:40:16;5.60;99.90
61253;DHT22;47127;47.516;8.596;2024-01-06T10:42:42;5.60;99.90
61253;DHT22;47127;47.516;8.596;2024-01-06T10:45:10;5.60;99.90
61253;DHT22;47127;47.516;8.596;2024-01-06T10:47:36;5.60;99.90
61253;DHT22;47127;47.516;8.596;2024-01-06T10:50:03;5.60;99.90
61253;DHT22;47127;47.516;8.596;2024-01-06T10:52:29;5.60;99.90
61253;DHT22;47127;47.516;8.596;2024-01-06T10:54:56;5.60;99.90
61253;DHT22;47127;47.516;8.596;2024-01-06T10:57:22;5.60;99.90
61253;DHT22;47127;47.516;8.596;2024-01-06T10:59:52;5.60;99.90
61253;DHT22;47127;47.516;8.596;2024-01-06T11:02:18;5.60;99.90
61253;DHT22;47127;47.516;8.596;2024-01-06T11:04:45;5.60;99.90
61253;DHT22;47127;47.516;8.596;2024-01-06T11:07:11;5.60;99.90
61253;DHT22;47127;47.516;8.596;2024-01-06T11:09:44;5.70;99.90
61253;DHT22;47127;47.516;8.596;2024-01-06T11:12:12;5.50;99.90
61253;DHT22;47127;47.516;8.596;2024-01-06T11:14:38;5.70;99.90
61253;DHT22;47127;47.516;8.596;2024-01-06T11:17:04;5.70;99.90
61253;DHT22;47127;47.516;8.596;2024-01-06T11:22:25;5.70;99.90
61253;DHT22;47127;47.516;8.596;2024-01-06T11:24:56;5.70;99.90
61253;DHT22;47127;47.516;8.596;2024-01-06T11:27:24;5.80;99.90
61253;DHT22;47127;47.516;8.596;2024-01-06T11:29:54;5.80;99.90
61253;DHT22;47127;47.516;8.596;2024-01-06T11:32:27;5.80;99.90
61253;DHT22;47127;47.516;8.596;2024-01-06T11:34:54;5.80;99.90
61253;DHT22;47127;47.516;8.596;2024-01-06T11:42:34;5.70;99.90
61253;DHT22;47127;47.516;8.596;2024-01-06T11:45:05;5.80;99.90
61253;DHT22;47127;47.516;8.596;2024-01-06T11:47:34;5.80;99.90
61253;DHT22;47127;47.516;8.596;2024-01-06T11:50:03;5.80;99.90
61253;DHT22;47127;47.516;8.596;2024-01-06T11:52:33;5.80;99.90
61253;DHT22;47127;47.516;8.596;2024-01-06T11:54:59;5.80;99.90
61253;DHT22;47127;47.516;8.596;2024-01-06T11:57:29;5.80;99.90
61253;DHT22;47127;47.516;8.596;2024-01-06T11:59:55;5.80;99.90
61253;DHT22;47127;47.516;8.596;2024-01-06T12:02:21;5.90;99.90
61253;DHT22;47127;47.516;8.596;2024-01-06T12:04:54;5.90;99.90
61253;DHT22;47127;47.516;8.596;2024-01-06T12:07:20;5.90;99.90
61253;DHT22;47127;47.516;8.596;2024-01-06T12:09:48;5.90;99.90
61253;DHT22;47127;47.516;8.596;2024-01-06T12:12:17;5.90;99.90
61253;DHT22;47127;47.516;8.596;2024-01-06T12:14:43;5.90;99.90
61253;DHT22;47127;47.516;8.596;2024-01-06T12:17:09;5.90;99.90
61253;DHT22;47127;47.516;8.596;2024-01-06T12:19:35;5.80;99.90
61253;DHT22;47127;47.516;8.596;2024-01-06T12:22:01;5.90;99.90
61253;DHT22;47127;47.516;8.596;2024-01-06T12:24:28;5.80;99.90
61253;DHT22;47127;47.516;8.596;2024-01-06T12:26:56;5.80;99.90
61253;DHT22;47127;47.516;8.596;2024-01-06T12:29:23;5.80;99.90
61253;DHT22;47127;47.516;8.596;2024-01-06T12:31:48;5.80;99.90
61253;DHT22;47127;47.516;8.596;2024-01-06T12:34:14;5.80;99.90
61253;DHT22;47127;47.516;8.596;2024-01-06T12:36:41;5.90;99.90
61253;DHT22;47127;47.516;8.596;2024-01-06T12:39:12;5.90;99.90
61253;DHT22;47127;47.516;8.596;2024-01-06T12:41:41;5.90;99.90
61253;DHT22;47127;47.516;8.596;2024-01-06T12:44:08;5.90;99.90
61253;DHT22;47127;47.516;8.596;2024-01-06T12:46:34;5.90;99.90
61253;DHT22;47127;47.516;8.596;2024-01-06T12:48:59;5.90;99.90
61253;DHT22;47127;47.516;8.596;2024-01-06T12:51:25;6.00;99.90
61253;DHT22;47127;47.516;8.596;2024-01-06T12:53:50;6.00;99.90
61253;DHT22;47127;47.516;8.596;2024-01-06T12:56:16;6.00;99.90
61253;DHT22;47127;47.516;8.596;2024-01-06T12:58:42;5.90;99.90
61253;DHT22;47127;47.516;8.596;2024-01-06T13:01:09;5.90;99.90
61253;DHT22;47127;47.516;8.596;2024-01-06T13:03:35;5.90;99.90
61253;DHT22;47127;47.516;8.596;2024-01-06T13:06:01;6.00;99.90
61253;DHT22;47127;47.516;8.596;2024-01-06T13:08:27;6.00;99.90
61253;DHT22;47127;47.516;8.596;2024-01-06T13:10:56;5.90;99.90
61253;DHT22;47127;47.516;8.596;2024-01-06T13:13:22;5.90;99.90
61253;DHT22;47127;47.516;8.596;2024-01-06T13:15:48;5.90;99.90
61253;DHT22;47127;47.516;8.596;2024-01-06T13:18:14;5.90;99.90
61253;DHT22;47127;47.516;8.596;2024-01-06T13:20:40;5.80;99.90
61253;DHT22;47127;47.516;8.596;2024-01-06T13:23:09;5.90;99.90
61253;DHT22;47127;47.516;8.596;2024-01-06T13:25:37;5.90;99.90
61253;DHT22;47127;47.516;8.596;2024-01-06T13:28:04;5.90;99.90
61253;DHT22;47127;47.516;8.596;2024-01-06T13:30:29;5.80;99.90
61253;DHT22;47127;47.516;8.596;2024-01-06T13:32:55;5.90;99.90
61253;DHT22;47127;47.516;8.596;2024-01-06T13:35:21;5.90;99.90
61253;DHT22;47127;47.516;8.596;2024-01-06T13:37:53;5.90;99.90
61253;DHT22;47127;47.516;8.596;2024-01-06T13:40:19;5.90;99.90
61253;DHT22;47127;47.516;8.596;2024-01-06T13:42:48;5.90;99.90
61253;DHT22;47127;47.516;8.596;2024-01-06T13:45:14;5.90;99.90
61253;DHT22;47127;47.516;8.596;2024-01-06T13:47:41;5.90;99.90
61253;DHT22;47127;47.516;8.596;2024-01-06T13:50:14;6.00;99.90
61253;DHT22;47127;47.516;8.596;2024-01-06T13:52:40;5.90;99.90
61253;DHT22;47127;47.516;8.596;2024-01-06T13:55:06;5.90;99.90
61253;DHT22;47127;47.516;8.596;2024-01-06T13:57:33;6.00;99.90
61253;DHT22;47127;47.516;8.596;2024-01-06T13:59:59;6.00;99.90
61253;DHT22;47127;47.516;8.596;2024-01-06T14:02:25;6.00;99.90
61253;DHT22;47127;47.516;8.596;2024-01-06T14:04:51;5.90;99.90
61253;DHT22;47127;47.516;8.596;2024-01-06T14:07:17;6.00;99.90
61253;DHT22;47127;47.516;8.596;2024-01-06T14:09:47;6.00;99.90
61253;DHT22;47127;47.516;8.596;2024-01-06T14:12:13;6.00;99.90
61253;DHT22;47127;47.516;8.596;2024-01-06T14:14:39;6.00;99.90
61253;DHT22;47127;47.516;8.596;2024-01-06T14:17:05;6.00;99.90
61253;DHT22;47127;47.516;8.596;2024-01-06T14:19:30;6.00;99.90
61253;DHT22;47127;47.516;8.596;2024-01-06T14:21:56;6.00;99.90
61253;DHT22;47127;47.516;8.596;2024-01-06T14:24:21;6.00;99.90
61253;DHT22;47127;47.516;8.596;2024-01-06T14:26:50;6.00;99.90
61253;DHT22;47127;47.516;8.596;2024-01-06T14:29:16;6.00;99.90
61253;DHT22;47127;47.516;8.596;2024-01-06T14:31:43;6.00;99.90
61253;DHT22;47127;47.516;8.596;2024-01-06T14:34:09;6.00;99.90
61253;DHT22;47127;47.516;8.596;2024-01-06T14:36:35;6.10;99.90
61253;DHT22;47127;47.516;8.596;2024-01-06T14:39:00;6.00;99.90
61253;DHT22;47127;47.516;8.596;2024-01-06T14:41:27;6.10;99.90
61253;DHT22;47127;47.516;8.596;2024-01-06T14:43:52;6.00;99.90
61253;DHT22;47127;47.516;8.596;2024-01-06T14:46:18;6.10;99.90
61253;DHT22;47127;47.516;8.596;2024-01-06T14:48:46;6.00;99.90
61253;DHT22;47127;47.516;8.596;2024-01-06T14:51:13;6.00;99.90
61253;DHT22;47127;47.516;8.596;2024-01-06T14:53:39;6.00;99.90
61253;DHT22;47127;47.516;8.596;2024-01-06T14:56:05;6.00;99.90
61253;DHT22;47127;47.516;8.596;2024-01-06T14:58:30;6.00;99.90
61253;DHT22;47127;47.516;8.596;2024-01-06T15:00:56;5.90;99.90
61253;DHT22;47127;47.516;8.596;2024-01-06T15:03:21;5.90;99.90
61253;DHT22;47127;47.516;8.596;2024-01-06T15:05:49;5.90;99.90
61253;DHT22;47127;47.516;8.596;2024-01-06T15:08:14;5.90;99.90
61253;DHT22;47127;47.516;8.596;2024-01-06T15:10:40;5.90;99.90
61253;DHT22;47127;47.516;8.596;2024-01-06T15:13:05;5.90;99.90
61253;DHT22;47127;47.516;8.596;2024-01-06T15:15:31;5.80;99.90
61253;DHT22;47127;47.516;8.596;2024-01-06T15:17:57;5.80;99.90
61253;DHT22;47127;47.516;8.596;2024-01-06T15:20:22;5.90;99.90
61253;DHT22;47127;47.516;8.596;2024-01-06T15:22:49;5.90;99.90
61253;DHT22;47127;47.516;8.596;2024-01-06T15:25:14;6.00;99.90
61253;DHT22;47127;47.516;8.596;2024-01-06T15:27:42;6.10;99.90
61253;DHT22;47127;47.516;8.596;2024-01-06T15:30:08;6.10;99.90
61253;DHT22;47127;47.516;8.596;2024-01-06T15:32:37;6.00;99.90
61253;DHT22;47127;47.516;8.596;2024-01-06T15:35:03;6.10;99.90
61253;DHT22;47127;47.516;8.596;2024-01-06T15:37:32;6.10;99.90
61253;DHT22;47127;47.516;8.596;2024-01-06T15:39:57;6.00;99.90
61253;DHT22;47127;47.516;8.596;2024-01-06T15:42:24;6.00;99.90
61253;DHT22;47127;47.516;8.596;2024-01-06T15:44:50;5.90;99.90
61253;DHT22;47127;47.516;8.596;2024-01-06T15:47:15;5.90;99.90
61253;DHT22;47127;47.516;8.596;2024-01-06T15:49:41;5.90;99.90